sensor_id;sensor_type;location;lat;lon;timestamp;P1;durP1;ratioP1;P2;durP2;ratioP2
10430;SDS011;5262;59.958;17.726;2023-04-01T00:00:17;2.47;;;1.20;;
10430;SDS011;5262;59.958;17.726;2023-04-01T00:02:43;2.67;;;1.10;;
10430;SDS011;5262;59.958;17.726;2023-04-01T00:05:09;1.83;;;1.10;;
10430;SDS011;5262;59.958;17.726;2023-04-01T00:07:36;1.43;;;0.93;;
10430;SDS011;5262;59.958;17.726;2023-04-01T00:10:06;1.50;;;1.07;;
10430;SDS011;5262;59.958;17.726;2023-04-01T00:12:35;1.67;;;1.20;;
10430;SDS011;5262;59.958;17.726;2023-04-01T00:15:02;1.47;;;1.20;;
10430;SDS011;5262;59.958;17.726;2023-04-01T00:17:29;2.17;;;0.90;;
10430;SDS011;5262;59.958;17.726;2023-04-01T00:19:55;2.40;;;1.20;;
10430;SDS011;5262;59.958;17.726;2023-04-01T00:22:21;3.03;;;0.87;;
10430;SDS011;5262;59.958;17.726;2023-04-01T00:24:47;0.80;;;0.80;;
10430;SDS011;5262;59.958;17.726;2023-04-01T00:27:13;1.47;;;1.10;;
10430;SDS011;5262;59.958;17.726;2023-04-01T00:29:43;1.57;;;1.20;;
10430;SDS011;5262;59.958;17.726;2023-04-01T00:32:09;1.53;;;0.90;;
10430;SDS011;5262;59.958;17.726;2023-04-01T00:34:35;1.73;;;1.17;;
10430;SDS011;5262;59.958;17.726;2023-04-01T00:37:01;1.00;;;0.90;;
10430;SDS011;5262;59.958;17.726;2023-04-01T00:39:30;3.27;;;1.27;;
10430;SDS011;5262;59.958;17.726;2023-04-01T00:41:57;1.67;;;0.90;;
10430;SDS011;5262;59.958;17.726;2023-04-01T00:44:24;1.53;;;1.20;;
10430;SDS011;5262;59.958;17.726;2023-04-01T00:46:52;1.87;;;1.00;;
10430;SDS011;5262;59.958;17.726;2023-04-01T00:49:18;1.50;;;0.80;;
10430;SDS011;5262;59.958;17.726;2023-04-01T00:51:48;3.13;;;1.23;;
10430;SDS011;5262;59.958;17.726;2023-04-01T00:54:17;1.07;;;0.90;;
10430;SDS011;5262;59.958;17.726;2023-04-01T00:56:50;2.20;;;1.17;;
10430;SDS011;5262;59.958;17.726;2023-04-01T00:59:31;1.33;;;0.93;;
10430;SDS011;5262;59.958;17.726;2023-04-01T01:02:02;1.63;;;1.00;;
10430;SDS011;5262;59.958;17.726;2023-04-01T01:04:29;1.47;;;1.13;;
10430;SDS011;5262;59.958;17.726;2023-04-01T01:15:12;1.63;;;0.90;;
10430;SDS011;5262;59.958;17.726;2023-04-01T01:18:04;1.43;;;0.80;;
10430;SDS011;5262;59.958;17.726;2023-04-01T01:37:45;2.10;;;1.20;;
10430;SDS011;5262;59.958;17.726;2023-04-01T01:40:12;1.13;;;0.80;;
10430;SDS011;5262;59.958;17.726;2023-04-01T01:42:40;1.03;;;0.80;;
10430;SDS011;5262;59.958;17.726;2023-04-01T01:45:10;1.50;;;1.10;;
10430;SDS011;5262;59.958;17.726;2023-04-01T01:47:39;1.37;;;1.03;;
10430;SDS011;5262;59.958;17.726;2023-04-01T01:50:06;2.20;;;0.93;;
10430;SDS011;5262;59.958;17.726;2023-04-01T01:52:33;2.63;;;1.23;;
10430;SDS011;5262;59.958;17.726;2023-04-01T01:54:59;1.50;;;0.90;;
10430;SDS011;5262;59.958;17.726;2023-04-01T01:57:25;1.17;;;0.93;;
10430;SDS011;5262;59.958;17.726;2023-04-01T01:59:59;1.30;;;0.90;;
10430;SDS011;5262;59.958;17.726;2023-04-01T02:02:39;1.20;;;0.90;;
10430;SDS011;5262;59.958;17.726;2023-04-01T02:05:15;2.37;;;1.13;;
10430;SDS011;5262;59.958;17.726;2023-04-01T02:07:49;3.87;;;1.10;;
10430;SDS011;5262;59.958;17.726;2023-04-01T02:10:27;5.30;;;1.17;;
10430;SDS011;5262;59.958;17.726;2023-04-01T02:12:57;2.50;;;1.30;;
10430;SDS011;5262;59.958;17.726;2023-04-01T02:15:28;2.07;;;1.30;;
10430;SDS011;5262;59.958;17.726;2023-04-01T02:17:58;5.23;;;1.13;;
10430;SDS011;5262;59.958;17.726;2023-04-01T02:20:24;4.70;;;1.40;;
10430;SDS011;5262;59.958;17.726;2023-04-01T02:22:55;2.07;;;1.03;;
10430;SDS011;5262;59.958;17.726;2023-04-01T02:25:32;1.67;;;1.10;;
10430;SDS011;5262;59.958;17.726;2023-04-01T02:28:00;1.53;;;0.90;;
10430;SDS011;5262;59.958;17.726;2023-04-01T02:30:29;2.43;;;1.50;;
10430;SDS011;5262;59.958;17.726;2023-04-01T02:32:58;1.97;;;1.30;;
10430;SDS011;5262;59.958;17.726;2023-04-01T02:35:24;1.40;;;1.10;;
10430;SDS011;5262;59.958;17.726;2023-04-01T02:37:50;2.17;;;1.30;;
10430;SDS011;5262;59.958;17.726;2023-04-01T02:40:18;2.47;;;1.17;;
10430;SDS011;5262;59.958;17.726;2023-04-01T02:42:44;1.93;;;1.10;;
10430;SDS011;5262;59.958;17.726;2023-04-01T02:45:10;3.40;;;1.40;;
10430;SDS011;5262;59.958;17.726;2023-04-01T02:47:37;1.60;;;1.30;;
10430;SDS011;5262;59.958;17.726;2023-04-01T02:50:03;3.13;;;1.30;;
10430;SDS011;5262;59.958;17.726;2023-04-01T02:52:29;2.40;;;1.27;;
10430;SDS011;5262;59.958;17.726;2023-04-01T02:54:55;1.53;;;1.13;;
10430;SDS011;5262;59.958;17.726;2023-04-01T02:57:22;2.27;;;1.47;;
10430;SDS011;5262;59.958;17.726;2023-04-01T02:59:48;2.40;;;1.50;;
10430;SDS011;5262;59.958;17.726;2023-04-01T03:02:14;1.83;;;1.30;;
10430;SDS011;5262;59.958;17.726;2023-04-01T03:04:40;2.03;;;1.17;;
10430;SDS011;5262;59.958;17.726;2023-04-01T03:07:05;3.40;;;1.23;;
10430;SDS011;5262;59.958;17.726;2023-04-01T03:09:32;6.57;;;1.70;;
10430;SDS011;5262;59.958;17.726;2023-04-01T03:11:57;3.37;;;1.57;;
10430;SDS011;5262;59.958;17.726;2023-04-01T03:14:23;2.03;;;1.40;;
10430;SDS011;5262;59.958;17.726;2023-04-01T03:16:48;5.03;;;1.60;;
10430;SDS011;5262;59.958;17.726;2023-04-01T03:19:14;2.33;;;1.20;;
10430;SDS011;5262;59.958;17.726;2023-04-01T03:21:40;1.87;;;1.50;;
10430;SDS011;5262;59.958;17.726;2023-04-01T03:24:06;1.77;;;1.40;;
10430;SDS011;5262;59.958;17.726;2023-04-01T03:26:33;3.93;;;1.43;;
10430;SDS011;5262;59.958;17.726;2023-04-01T03:28:58;2.70;;;1.70;;
10430;SDS011;5262;59.958;17.726;2023-04-01T03:31:24;2.37;;;1.43;;
10430;SDS011;5262;59.958;17.726;2023-04-01T03:33:50;3.13;;;1.73;;
10430;SDS011;5262;59.958;17.726;2023-04-01T03:36:16;3.90;;;1.33;;
10430;SDS011;5262;59.958;17.726;2023-04-01T03:38:43;2.33;;;1.43;;
10430;SDS011;5262;59.958;17.726;2023-04-01T03:41:13;2.73;;;1.50;;
10430;SDS011;5262;59.958;17.726;2023-04-01T03:43:42;2.47;;;1.37;;
10430;SDS011;5262;59.958;17.726;2023-04-01T03:46:09;4.53;;;1.30;;
10430;SDS011;5262;59.958;17.726;2023-04-01T03:48:34;2.33;;;1.30;;
10430;SDS011;5262;59.958;17.726;2023-04-01T03:51:00;2.97;;;1.60;;
10430;SDS011;5262;59.958;17.726;2023-04-01T03:53:26;2.57;;;1.77;;
10430;SDS011;5262;59.958;17.726;2023-04-01T03:55:52;2.40;;;1.57;;
10430;SDS011;5262;59.958;17.726;2023-04-01T03:58:18;1.77;;;1.37;;
10430;SDS011;5262;59.958;17.726;2023-04-01T04:00:44;2.43;;;1.43;;
10430;SDS011;5262;59.958;17.726;2023-04-01T04:03:10;3.70;;;2.00;;
10430;SDS011;5262;59.958;17.726;2023-04-01T04:05:35;4.97;;;1.80;;
10430;SDS011;5262;59.958;17.726;2023-04-01T04:08:01;2.33;;;1.60;;
10430;SDS011;5262;59.958;17.726;2023-04-01T04:10:27;2.77;;;1.60;;
10430;SDS011;5262;59.958;17.726;2023-04-01T04:12:54;2.37;;;1.83;;
10430;SDS011;5262;59.958;17.726;2023-04-01T04:15:30;3.03;;;1.70;;
10430;SDS011;5262;59.958;17.726;2023-04-01T04:18:15;2.83;;;1.57;;
10430;SDS011;5262;59.958;17.726;2023-04-01T04:21:01;7.00;;;1.70;;
10430;SDS011;5262;59.958;17.726;2023-04-01T04:23:48;4.07;;;1.60;;
10430;SDS011;5262;59.958;17.726;2023-04-01T04:26:33;3.87;;;1.90;;
10430;SDS011;5262;59.958;17.726;2023-04-01T04:29:19;2.33;;;1.70;;
10430;SDS011;5262;59.958;17.726;2023-04-01T04:32:05;3.00;;;1.80;;
10430;SDS011;5262;59.958;17.726;2023-04-01T04:34:50;2.53;;;1.50;;
10430;SDS011;5262;59.958;17.726;2023-04-01T04:37:36;3.10;;;1.50;;
10430;SDS011;5262;59.958;17.726;2023-04-01T04:40:21;2.80;;;1.60;;
10430;SDS011;5262;59.958;17.726;2023-04-01T04:43:08;2.33;;;1.53;;
10430;SDS011;5262;59.958;17.726;2023-04-01T04:45:56;2.27;;;1.33;;
10430;SDS011;5262;59.958;17.726;2023-04-01T04:48:21;2.30;;;1.47;;
10430;SDS011;5262;59.958;17.726;2023-04-01T04:50:48;4.17;;;2.07;;
10430;SDS011;5262;59.958;17.726;2023-04-01T04:53:17;3.47;;;1.47;;
10430;SDS011;5262;59.958;17.726;2023-04-01T04:55:44;4.00;;;1.70;;
10430;SDS011;5262;59.958;17.726;2023-04-01T04:58:11;2.90;;;1.60;;
10430;SDS011;5262;59.958;17.726;2023-04-01T05:00:36;2.53;;;1.93;;
10430;SDS011;5262;59.958;17.726;2023-04-01T05:03:02;5.03;;;1.90;;
10430;SDS011;5262;59.958;17.726;2023-04-01T05:05:28;2.20;;;1.73;;
10430;SDS011;5262;59.958;17.726;2023-04-01T05:07:53;2.87;;;1.60;;
10430;SDS011;5262;59.958;17.726;2023-04-01T05:10:19;5.10;;;2.23;;
10430;SDS011;5262;59.958;17.726;2023-04-01T05:12:46;2.23;;;1.40;;
10430;SDS011;5262;59.958;17.726;2023-04-01T05:15:11;4.37;;;1.70;;
10430;SDS011;5262;59.958;17.726;2023-04-01T05:17:37;3.13;;;1.80;;
10430;SDS011;5262;59.958;17.726;2023-04-01T05:20:03;2.70;;;1.60;;
10430;SDS011;5262;59.958;17.726;2023-04-01T05:22:29;3.00;;;1.70;;
10430;SDS011;5262;59.958;17.726;2023-04-01T05:24:55;3.47;;;1.60;;
10430;SDS011;5262;59.958;17.726;2023-04-01T05:27:20;2.77;;;1.63;;
10430;SDS011;5262;59.958;17.726;2023-04-01T05:29:46;3.53;;;1.60;;
10430;SDS011;5262;59.958;17.726;2023-04-01T05:32:12;7.57;;;1.60;;
10430;SDS011;5262;59.958;17.726;2023-04-01T05:34:38;2.50;;;1.40;;
10430;SDS011;5262;59.958;17.726;2023-04-01T05:37:03;4.10;;;1.63;;
10430;SDS011;5262;59.958;17.726;2023-04-01T05:39:29;2.23;;;1.53;;
10430;SDS011;5262;59.958;17.726;2023-04-01T05:41:55;2.37;;;1.10;;
10430;SDS011;5262;59.958;17.726;2023-04-01T05:44:21;2.53;;;1.53;;
10430;SDS011;5262;59.958;17.726;2023-04-01T05:46:46;2.07;;;1.33;;
10430;SDS011;5262;59.958;17.726;2023-04-01T05:49:12;2.13;;;1.40;;
10430;SDS011;5262;59.958;17.726;2023-04-01T05:51:37;2.97;;;1.50;;
10430;SDS011;5262;59.958;17.726;2023-04-01T05:54:06;4.83;;;1.70;;
10430;SDS011;5262;59.958;17.726;2023-04-01T05:56:32;2.77;;;1.90;;
10430;SDS011;5262;59.958;17.726;2023-04-01T05:58:57;1.50;;;1.27;;
10430;SDS011;5262;59.958;17.726;2023-04-01T06:01:23;2.47;;;1.63;;
10430;SDS011;5262;59.958;17.726;2023-04-01T06:03:49;6.37;;;2.03;;
10430;SDS011;5262;59.958;17.726;2023-04-01T06:06:15;2.03;;;1.30;;
10430;SDS011;5262;59.958;17.726;2023-04-01T06:08:48;2.73;;;1.63;;
10430;SDS011;5262;59.958;17.726;2023-04-01T06:14:20;1.40;;;0.90;;
10430;SDS011;5262;59.958;17.726;2023-04-01T06:17:04;3.30;;;1.53;;
10430;SDS011;5262;59.958;17.726;2023-04-01T06:41:46;2.47;;;1.30;;
10430;SDS011;5262;59.958;17.726;2023-04-01T06:47:50;2.97;;;1.50;;
10430;SDS011;5262;59.958;17.726;2023-04-01T06:55:27;5.73;;;1.50;;
10430;SDS011;5262;59.958;17.726;2023-04-01T06:58:11;3.17;;;1.40;;
10430;SDS011;5262;59.958;17.726;2023-04-01T07:00:46;2.60;;;1.40;;
10430;SDS011;5262;59.958;17.726;2023-04-01T07:05:45;2.20;;;1.13;;
10430;SDS011;5262;59.958;17.726;2023-04-01T07:08:18;1.97;;;0.93;;
10430;SDS011;5262;59.958;17.726;2023-04-01T07:11:01;3.03;;;1.00;;
10430;SDS011;5262;59.958;17.726;2023-04-01T07:18:53;2.17;;;1.23;;
10430;SDS011;5262;59.958;17.726;2023-04-01T07:21:25;2.47;;;1.20;;
10430;SDS011;5262;59.958;17.726;2023-04-01T07:23:56;2.90;;;1.07;;
10430;SDS011;5262;59.958;17.726;2023-04-01T07:26:26;2.47;;;1.13;;
10430;SDS011;5262;59.958;17.726;2023-04-01T07:28:52;4.03;;;1.50;;
10430;SDS011;5262;59.958;17.726;2023-04-01T07:31:25;1.90;;;0.90;;
10430;SDS011;5262;59.958;17.726;2023-04-01T07:34:16;2.47;;;1.20;;
10430;SDS011;5262;59.958;17.726;2023-04-01T07:37:00;1.90;;;1.00;;
10430;SDS011;5262;59.958;17.726;2023-04-01T07:42:13;1.30;;;0.90;;
10430;SDS011;5262;59.958;17.726;2023-04-01T07:45:01;1.50;;;0.90;;
10430;SDS011;5262;59.958;17.726;2023-04-01T07:48:00;3.13;;;1.10;;
10430;SDS011;5262;59.958;17.726;2023-04-01T07:50:50;1.70;;;0.83;;
10430;SDS011;5262;59.958;17.726;2023-04-01T07:53:50;2.07;;;0.80;;
10430;SDS011;5262;59.958;17.726;2023-04-01T07:56:35;2.43;;;0.63;;
10430;SDS011;5262;59.958;17.726;2023-04-01T08:10:50;3.47;;;0.95;;
10430;SDS011;5262;59.958;17.726;2023-04-01T08:16:24;1.52;;;0.90;;
10430;SDS011;5262;59.958;17.726;2023-04-01T08:19:22;2.33;;;1.05;;
10430;SDS011;5262;59.958;17.726;2023-04-01T08:22:15;1.67;;;0.90;;
10430;SDS011;5262;59.958;17.726;2023-04-01T08:24:46;2.08;;;0.82;;
10430;SDS011;5262;59.958;17.726;2023-04-01T08:35:30;1.77;;;0.77;;
10430;SDS011;5262;59.958;17.726;2023-04-01T08:38:10;1.10;;;0.63;;
10430;SDS011;5262;59.958;17.726;2023-04-01T08:44:12;1.10;;;0.70;;
10430;SDS011;5262;59.958;17.726;2023-04-01T08:58:21;1.48;;;0.60;;
10430;SDS011;5262;59.958;17.726;2023-04-01T09:00:53;2.35;;;0.60;;
10430;SDS011;5262;59.958;17.726;2023-04-01T09:03:36;2.03;;;0.80;;
10430;SDS011;5262;59.958;17.726;2023-04-01T09:11:33;1.48;;;0.68;;
10430;SDS011;5262;59.958;17.726;2023-04-01T09:25:30;1.50;;;0.75;;
10430;SDS011;5262;59.958;17.726;2023-04-01T09:31:26;1.10;;;0.60;;
10430;SDS011;5262;59.958;17.726;2023-04-01T09:36:46;2.42;;;0.70;;
10430;SDS011;5262;59.958;17.726;2023-04-01T09:39:23;1.75;;;0.63;;
10430;SDS011;5262;59.958;17.726;2023-04-01T09:42:16;0.70;;;0.43;;
10430;SDS011;5262;59.958;17.726;2023-04-01T09:51:15;0.63;;;0.30;;
10430;SDS011;5262;59.958;17.726;2023-04-01T09:54:19;2.05;;;0.60;;
10430;SDS011;5262;59.958;17.726;2023-04-01T10:03:01;1.90;;;0.60;;
10430;SDS011;5262;59.958;17.726;2023-04-01T10:26:35;0.82;;;0.30;;
10430;SDS011;5262;59.958;17.726;2023-04-01T10:45:40;0.63;;;0.30;;
10430;SDS011;5262;59.958;17.726;2023-04-01T10:51:04;0.47;;;0.20;;
10430;SDS011;5262;59.958;17.726;2023-04-01T10:54:01;0.60;;;0.25;;
10430;SDS011;5262;59.958;17.726;2023-04-01T10:56:47;0.47;;;0.17;;
10430;SDS011;5262;59.958;17.726;2023-04-01T11:21:59;0.40;;;0.30;;
10430;SDS011;5262;59.958;17.726;2023-04-01T11:32:55;0.47;;;0.20;;
10430;SDS011;5262;59.958;17.726;2023-04-01T11:35:48;0.60;;;0.30;;
10430;SDS011;5262;59.958;17.726;2023-04-01T11:38:34;0.53;;;0.27;;
10430;SDS011;5262;59.958;17.726;2023-04-01T11:52:56;0.83;;;0.40;;
10430;SDS011;5262;59.958;17.726;2023-04-01T11:55:42;0.80;;;0.40;;
10430;SDS011;5262;59.958;17.726;2023-04-01T11:58:28;0.60;;;0.40;;
10430;SDS011;5262;59.958;17.726;2023-04-01T12:01:20;0.67;;;0.30;;
10430;SDS011;5262;59.958;17.726;2023-04-01T12:06:54;0.87;;;0.40;;
10430;SDS011;5262;59.958;17.726;2023-04-01T12:09:53;1.03;;;0.50;;
10430;SDS011;5262;59.958;17.726;2023-04-01T12:12:46;0.60;;;0.37;;
10430;SDS011;5262;59.958;17.726;2023-04-01T12:18:36;0.70;;;0.30;;
10430;SDS011;5262;59.958;17.726;2023-04-01T12:23:55;0.50;;;0.20;;
10430;SDS011;5262;59.958;17.726;2023-04-01T12:40:20;1.83;;;0.53;;
10430;SDS011;5262;59.958;17.726;2023-04-01T12:56:09;3.13;;;0.50;;
10430;SDS011;5262;59.958;17.726;2023-04-01T13:04:54;1.37;;;0.40;;
10430;SDS011;5262;59.958;17.726;2023-04-01T13:07:31;0.50;;;0.20;;
10430;SDS011;5262;59.958;17.726;2023-04-01T13:12:56;1.17;;;0.43;;
10430;SDS011;5262;59.958;17.726;2023-04-01T13:15:39;1.63;;;0.50;;
10430;SDS011;5262;59.958;17.726;2023-04-01T13:23:34;2.10;;;0.40;;
10430;SDS011;5262;59.958;17.726;2023-04-01T13:26:18;1.07;;;0.40;;
10430;SDS011;5262;59.958;17.726;2023-04-01T13:31:48;1.50;;;0.43;;
10430;SDS011;5262;59.958;17.726;2023-04-01T13:37:09;2.37;;;0.57;;
10430;SDS011;5262;59.958;17.726;2023-04-01T13:39:44;2.07;;;0.37;;
10430;SDS011;5262;59.958;17.726;2023-04-01T13:42:47;1.07;;;0.40;;
10430;SDS011;5262;59.958;17.726;2023-04-01T13:45:21;2.37;;;0.60;;
10430;SDS011;5262;59.958;17.726;2023-04-01T13:53:45;1.27;;;0.40;;
10430;SDS011;5262;59.958;17.726;2023-04-01T13:59:58;0.73;;;0.30;;
10430;SDS011;5262;59.958;17.726;2023-04-01T14:07:58;1.80;;;0.57;;
10430;SDS011;5262;59.958;17.726;2023-04-01T14:15:49;1.90;;;0.50;;
10430;SDS011;5262;59.958;17.726;2023-04-01T14:18:42;1.10;;;0.50;;
10430;SDS011;5262;59.958;17.726;2023-04-01T14:27:41;2.40;;;0.73;;
10430;SDS011;5262;59.958;17.726;2023-04-01T14:30:24;3.40;;;0.90;;
10430;SDS011;5262;59.958;17.726;2023-04-01T14:36:10;1.37;;;0.50;;
10430;SDS011;5262;59.958;17.726;2023-04-01T14:39:15;1.50;;;0.57;;
10430;SDS011;5262;59.958;17.726;2023-04-01T14:50:09;1.57;;;0.67;;
10430;SDS011;5262;59.958;17.726;2023-04-01T14:58:07;2.77;;;0.77;;
10430;SDS011;5262;59.958;17.726;2023-04-01T15:00:46;2.37;;;0.60;;
10430;SDS011;5262;59.958;17.726;2023-04-01T15:03:20;1.20;;;0.60;;
10430;SDS011;5262;59.958;17.726;2023-04-01T15:08:28;2.10;;;0.63;;
10430;SDS011;5262;59.958;17.726;2023-04-01T15:16:34;1.43;;;0.30;;
10430;SDS011;5262;59.958;17.726;2023-04-01T15:19:14;1.40;;;0.63;;
10430;SDS011;5262;59.958;17.726;2023-04-01T15:21:55;1.00;;;0.30;;
10430;SDS011;5262;59.958;17.726;2023-04-01T15:24:23;2.57;;;0.50;;
10430;SDS011;5262;59.958;17.726;2023-04-01T15:41:35;1.40;;;0.60;;
10430;SDS011;5262;59.958;17.726;2023-04-01T15:44:32;3.80;;;0.80;;
10430;SDS011;5262;59.958;17.726;2023-04-01T15:49:55;1.80;;;0.63;;
10430;SDS011;5262;59.958;17.726;2023-04-01T15:55:26;1.57;;;0.70;;
10430;SDS011;5262;59.958;17.726;2023-04-01T16:17:58;3.27;;;0.90;;
10430;SDS011;5262;59.958;17.726;2023-04-01T16:21:02;3.30;;;0.80;;
10430;SDS011;5262;59.958;17.726;2023-04-01T16:23:50;2.07;;;0.67;;
10430;SDS011;5262;59.958;17.726;2023-04-01T16:26:24;3.30;;;0.60;;
10430;SDS011;5262;59.958;17.726;2023-04-01T16:31:43;3.63;;;0.77;;
10430;SDS011;5262;59.958;17.726;2023-04-01T16:34:19;2.90;;;0.93;;
10430;SDS011;5262;59.958;17.726;2023-04-01T16:36:54;1.43;;;0.60;;
10430;SDS011;5262;59.958;17.726;2023-04-01T16:42:43;4.20;;;0.83;;
10430;SDS011;5262;59.958;17.726;2023-04-01T16:45:43;2.87;;;1.00;;
10430;SDS011;5262;59.958;17.726;2023-04-01T16:48:34;1.63;;;0.80;;
10430;SDS011;5262;59.958;17.726;2023-04-01T16:51:17;4.20;;;1.10;;
10430;SDS011;5262;59.958;17.726;2023-04-01T16:53:48;3.73;;;1.30;;
10430;SDS011;5262;59.958;17.726;2023-04-01T16:56:25;2.87;;;1.20;;
10430;SDS011;5262;59.958;17.726;2023-04-01T16:59:14;4.72;;;1.38;;
10430;SDS011;5262;59.958;17.726;2023-04-01T17:01:52;3.93;;;1.10;;
10430;SDS011;5262;59.958;17.726;2023-04-01T17:13:16;4.43;;;1.07;;
10430;SDS011;5262;59.958;17.726;2023-04-01T17:16:00;3.77;;;1.43;;
10430;SDS011;5262;59.958;17.726;2023-04-01T17:18:43;3.15;;;1.08;;
10430;SDS011;5262;59.958;17.726;2023-04-01T17:21:37;2.93;;;0.93;;
10430;SDS011;5262;59.958;17.726;2023-04-01T17:26:54;6.07;;;1.75;;
10430;SDS011;5262;59.958;17.726;2023-04-01T17:35:28;8.07;;;1.63;;
10430;SDS011;5262;59.958;17.726;2023-04-01T17:43:35;5.30;;;1.53;;
10430;SDS011;5262;59.958;17.726;2023-04-01T17:58:02;2.40;;;1.40;;
10430;SDS011;5262;59.958;17.726;2023-04-01T18:03:24;6.67;;;1.83;;
10430;SDS011;5262;59.958;17.726;2023-04-01T18:15:00;2.70;;;0.93;;
10430;SDS011;5262;59.958;17.726;2023-04-01T18:29:01;5.60;;;1.33;;
10430;SDS011;5262;59.958;17.726;2023-04-01T18:31:38;7.50;;;2.00;;
10430;SDS011;5262;59.958;17.726;2023-04-01T18:34:13;8.30;;;2.23;;
10430;SDS011;5262;59.958;17.726;2023-04-01T18:37:19;7.07;;;1.73;;
10430;SDS011;5262;59.958;17.726;2023-04-01T18:39:52;6.47;;;2.20;;
10430;SDS011;5262;59.958;17.726;2023-04-01T18:50:55;5.27;;;2.20;;
10430;SDS011;5262;59.958;17.726;2023-04-01T19:02:20;7.77;;;2.03;;
10430;SDS011;5262;59.958;17.726;2023-04-01T19:05:00;6.13;;;1.73;;
10430;SDS011;5262;59.958;17.726;2023-04-01T19:15:22;7.00;;;1.40;;
10430;SDS011;5262;59.958;17.726;2023-04-01T19:21:16;5.33;;;1.80;;
10430;SDS011;5262;59.958;17.726;2023-04-01T19:24:03;6.70;;;1.50;;
10430;SDS011;5262;59.958;17.726;2023-04-01T19:26:39;3.70;;;1.60;;
10430;SDS011;5262;59.958;17.726;2023-04-01T19:34:56;9.17;;;2.03;;
10430;SDS011;5262;59.958;17.726;2023-04-01T19:37:32;7.27;;;1.90;;
10430;SDS011;5262;59.958;17.726;2023-04-01T19:51:09;7.10;;;1.63;;
10430;SDS011;5262;59.958;17.726;2023-04-01T19:56:42;4.93;;;2.00;;
10430;SDS011;5262;59.958;17.726;2023-04-01T20:04:44;6.43;;;1.73;;
10430;SDS011;5262;59.958;17.726;2023-04-01T20:07:19;6.57;;;1.40;;
10430;SDS011;5262;59.958;17.726;2023-04-01T20:15:20;4.53;;;1.60;;
10430;SDS011;5262;59.958;17.726;2023-04-01T20:17:53;5.70;;;1.47;;
10430;SDS011;5262;59.958;17.726;2023-04-01T20:20:24;5.63;;;1.37;;
10430;SDS011;5262;59.958;17.726;2023-04-01T20:23:33;5.43;;;1.23;;
10430;SDS011;5262;59.958;17.726;2023-04-01T20:25:54;5.70;;;1.60;;
10430;SDS011;5262;59.958;17.726;2023-04-01T20:28:32;6.93;;;1.40;;
10430;SDS011;5262;59.958;17.726;2023-04-01T20:34:12;4.33;;;1.67;;
10430;SDS011;5262;59.958;17.726;2023-04-01T20:42:57;5.63;;;1.83;;
10430;SDS011;5262;59.958;17.726;2023-04-01T20:51:13;6.10;;;1.80;;
10430;SDS011;5262;59.958;17.726;2023-04-01T20:53:51;5.40;;;1.67;;
10430;SDS011;5262;59.958;17.726;2023-04-01T21:02:29;7.70;;;1.70;;
10430;SDS011;5262;59.958;17.726;2023-04-01T21:10:55;3.70;;;1.53;;
10430;SDS011;5262;59.958;17.726;2023-04-01T21:16:48;5.07;;;1.63;;
10430;SDS011;5262;59.958;17.726;2023-04-01T21:20:09;5.60;;;1.70;;
10430;SDS011;5262;59.958;17.726;2023-04-01T21:25:22;11.37;;;1.83;;
10430;SDS011;5262;59.958;17.726;2023-04-01T21:33:54;2.37;;;1.10;;
10430;SDS011;5262;59.958;17.726;2023-04-01T21:36:52;7.13;;;1.37;;
10430;SDS011;5262;59.958;17.726;2023-04-01T21:42:11;4.90;;;1.40;;
10430;SDS011;5262;59.958;17.726;2023-04-01T21:48:15;5.97;;;1.20;;
10430;SDS011;5262;59.958;17.726;2023-04-01T21:59:25;4.10;;;1.50;;
10430;SDS011;5262;59.958;17.726;2023-04-01T22:02:22;9.43;;;1.53;;
10430;SDS011;5262;59.958;17.726;2023-04-01T22:05:07;6.20;;;1.60;;
10430;SDS011;5262;59.958;17.726;2023-04-01T22:08:02;5.33;;;1.53;;
10430;SDS011;5262;59.958;17.726;2023-04-01T22:13:26;7.27;;;1.33;;
10430;SDS011;5262;59.958;17.726;2023-04-01T22:16:16;8.30;;;1.50;;
10430;SDS011;5262;59.958;17.726;2023-04-01T22:21:58;3.23;;;1.13;;
10430;SDS011;5262;59.958;17.726;2023-04-01T22:27:25;8.57;;;1.70;;
10430;SDS011;5262;59.958;17.726;2023-04-01T22:30:23;5.73;;;1.43;;
10430;SDS011;5262;59.958;17.726;2023-04-01T22:33:08;4.80;;;1.20;;
10430;SDS011;5262;59.958;17.726;2023-04-01T22:41:44;5.23;;;1.43;;
10430;SDS011;5262;59.958;17.726;2023-04-01T22:44:17;6.47;;;1.40;;
10430;SDS011;5262;59.958;17.726;2023-04-01T22:47:08;5.33;;;1.60;;
10430;SDS011;5262;59.958;17.726;2023-04-01T22:49:59;2.90;;;1.40;;
10430;SDS011;5262;59.958;17.726;2023-04-01T22:52:35;6.70;;;1.30;;
10430;SDS011;5262;59.958;17.726;2023-04-01T22:55:10;6.20;;;1.37;;
10430;SDS011;5262;59.958;17.726;2023-04-01T22:57:45;5.70;;;1.37;;
10430;SDS011;5262;59.958;17.726;2023-04-01T23:03:32;7.10;;;1.37;;
10430;SDS011;5262;59.958;17.726;2023-04-01T23:06:02;5.57;;;1.57;;
10430;SDS011;5262;59.958;17.726;2023-04-01T23:11:16;3.27;;;1.37;;
10430;SDS011;5262;59.958;17.726;2023-04-01T23:16:54;4.50;;;1.37;;
10430;SDS011;5262;59.958;17.726;2023-04-01T23:19:37;3.27;;;1.20;;
10430;SDS011;5262;59.958;17.726;2023-04-01T23:24:54;5.90;;;1.30;;
10430;SDS011;5262;59.958;17.726;2023-04-01T23:27:43;6.47;;;1.37;;
10430;SDS011;5262;59.958;17.726;2023-04-01T23:38:39;4.67;;;1.33;;
10430;SDS011;5262;59.958;17.726;2023-04-01T23:41:07;6.30;;;1.37;;
10430;SDS011;5262;59.958;17.726;2023-04-01T23:43:45;9.87;;;1.33;;
10430;SDS011;5262;59.958;17.726;2023-04-01T23:46:20;6.20;;;1.13;;
10430;SDS011;5262;59.958;17.726;2023-04-01T23:48:46;5.83;;;1.40;;
10430;SDS011;5262;59.958;17.726;2023-04-01T23:51:13;4.37;;;1.40;;
10430;SDS011;5262;59.958;17.726;2023-04-01T23:53:46;4.53;;;1.40;;
10430;SDS011;5262;59.958;17.726;2023-04-01T23:56:16;4.13;;;1.20;;
10430;SDS011;5262;59.958;17.726;2023-04-01T23:58:44;7.07;;;1.37;;
